Arden, Delaware
Current Conditions -  °F | °C
As of 9:51 AM on Wednesday 22 Oct 2014 (Local Time) from KILG Reporting Station
Overcast Overcast  
Wind Chill: 56°   Ceiling: 1700
Heat Index: 56°   Visibility: 10mi
Dew Point: 52°   Wind: 15mph
Humidity: 87%   Direction: 20°NNE
Pressure: 29.89"   Gusts: NA
Location:  39.81°N, 75.49°W
Report Text: KILG 221351Z 02013KT 10SM BKN017 OVC065 13/11 A2989 RMK AO2 SLP121 T01330111
Loading
Personal Weather Stations






























Interactive Weather Map
Tropical Storm Tracking
New forecast layout! Learn more

10-Day Weather Forecast

Advertisements
Track Severe Weather on mobile